createdAt,value
2023-03-31T00:01:48.086Z,10.16
2023-03-31T00:06:00.765Z,9.72
2023-03-31T00:10:16.752Z,9.95
2023-03-31T00:14:21.490Z,9.86
2023-03-31T00:18:25.903Z,9.85
2023-03-31T00:22:27.985Z,9.91
2023-03-31T00:26:30.684Z,9.81
2023-03-31T00:30:32.803Z,10.01
2023-03-31T00:34:36.290Z,10.20
2023-03-31T00:38:38.595Z,10.30
2023-03-31T00:42:42.013Z,10.29
2023-03-31T00:47:17.791Z,10.33
2023-03-31T00:51:22.504Z,10.42
2023-03-31T00:55:33.396Z,10.41
2023-03-31T00:59:43.038Z,10.47
2023-03-31T01:03:49.770Z,10.55
2023-03-31T01:08:00.759Z,10.34
2023-03-31T01:12:07.785Z,10.28
2023-03-31T01:16:10.723Z,10.41
2023-03-31T01:20:35.032Z,10.56
2023-03-31T01:24:53.884Z,10.34
2023-03-31T01:29:20.682Z,10.05
2023-03-31T01:33:44.625Z,10.21
2023-03-31T01:38:11.691Z,10.21
2023-03-31T01:42:53.633Z,10.25
2023-03-31T01:47:11.282Z,10.33
2023-03-31T01:51:32.795Z,10.44
2023-03-31T01:55:58.450Z,10.49
2023-03-31T02:00:29.899Z,10.60
2023-03-31T02:04:45.105Z,10.55
2023-03-31T02:08:57.993Z,10.55
2023-03-31T02:13:03.757Z,10.38
2023-03-31T02:17:08.332Z,10.05
2023-03-31T02:21:11.701Z,9.96
2023-03-31T02:25:17.423Z,9.87
2023-03-31T02:29:19.979Z,9.89
2023-03-31T02:33:22.069Z,9.72
2023-03-31T02:37:25.802Z,9.80
2023-03-31T02:41:28.235Z,9.98
2023-03-31T02:45:49.517Z,10.20
2023-03-31T02:49:57.407Z,10.25
2023-03-31T02:54:18.401Z,10.43
2023-03-31T02:58:59.807Z,10.45
2023-03-31T03:03:32.505Z,10.56
2023-03-31T03:07:57.411Z,10.66
2023-03-31T03:12:19.920Z,10.67
2023-03-31T03:16:30.582Z,10.62
2023-03-31T03:20:34.079Z,10.57
2023-03-31T03:24:36.522Z,10.44
2023-03-31T03:28:38.548Z,10.56
2023-03-31T03:32:41.943Z,10.64
2023-03-31T03:36:44.076Z,10.68
2023-03-31T03:40:48.279Z,10.42
2023-03-31T03:44:52.294Z,10.51
2023-03-31T03:48:54.753Z,10.65
2023-03-31T03:52:57.289Z,10.67
2023-03-31T03:56:59.749Z,10.63
2023-03-31T04:01:02.531Z,10.75
2023-03-31T04:05:05.144Z,10.53
2023-03-31T04:09:07.289Z,10.54
2023-03-31T04:13:09.391Z,10.51
2023-03-31T04:17:16.244Z,10.30
2023-03-31T04:21:23.258Z,10.49
2023-03-31T04:25:25.420Z,10.56
2023-03-31T04:29:27.593Z,10.44
2023-03-31T04:33:29.812Z,10.39
2023-03-31T04:37:35.087Z,10.52
2023-03-31T04:41:37.397Z,10.51
2023-03-31T04:45:39.521Z,10.39
2023-03-31T04:49:41.730Z,10.33
2023-03-31T04:53:44.088Z,10.41
2023-03-31T04:57:46.286Z,10.49
2023-03-31T05:01:48.417Z,10.63
2023-03-31T05:05:50.515Z,10.67
2023-03-31T05:09:52.865Z,10.73
2023-03-31T05:13:55.095Z,10.71
2023-03-31T05:17:59.009Z,10.77
2023-03-31T05:22:01.400Z,10.83
2023-03-31T05:26:03.725Z,10.93
2023-03-31T05:30:08.433Z,10.97
2023-03-31T05:34:10.665Z,11.06
2023-03-31T05:38:12.716Z,11.01
2023-03-31T05:42:15.018Z,11.00
2023-03-31T05:46:18.620Z,11.05
2023-03-31T05:50:20.906Z,11.06
2023-03-31T05:54:23.353Z,11.15
2023-03-31T05:58:26.253Z,11.10
2023-03-31T06:02:28.484Z,11.26
2023-03-31T06:06:30.803Z,11.47
2023-03-31T06:10:33.100Z,11.50
2023-03-31T06:14:35.124Z,11.35
2023-03-31T06:18:37.433Z,11.36
2023-03-31T06:22:39.454Z,11.29
2023-03-31T06:26:41.779Z,11.53
2023-03-31T06:30:45.579Z,11.76
2023-03-31T06:34:47.773Z,12.01
2023-03-31T06:38:51.267Z,12.05
2023-03-31T06:42:53.524Z,12.28
2023-03-31T06:46:55.704Z,12.48
2023-03-31T06:51:02.663Z,12.50
2023-03-31T06:55:05.170Z,12.20
2023-03-31T06:59:07.239Z,12.30
2023-03-31T07:03:09.398Z,12.46
2023-03-31T07:07:11.745Z,12.50
2023-03-31T07:11:13.962Z,12.39
2023-03-31T07:15:16.742Z,12.32
2023-03-31T07:19:19.306Z,12.50
2023-03-31T07:23:21.533Z,12.58
2023-03-31T07:27:26.089Z,12.84
2023-03-31T07:31:28.524Z,12.94
2023-03-31T07:35:31.114Z,12.75
2023-03-31T07:39:35.494Z,12.78
2023-03-31T07:43:37.803Z,12.68
2023-03-31T07:47:40.201Z,12.65
2023-03-31T07:51:42.503Z,12.56
2023-03-31T07:55:44.579Z,12.67
2023-03-31T07:59:47.336Z,12.69
2023-03-31T08:03:49.595Z,12.65
2023-03-31T08:07:52.124Z,12.70
2023-03-31T08:11:54.217Z,13.06
2023-03-31T08:15:57.974Z,13.22
2023-03-31T08:20:03.726Z,13.60
2023-03-31T08:24:08.469Z,14.18
2023-03-31T08:28:14.443Z,14.26
2023-03-31T08:32:16.936Z,14.34
2023-03-31T08:36:19.127Z,14.91
2023-03-31T08:40:26.117Z,14.83
2023-03-31T08:44:33.972Z,14.55
2023-03-31T08:48:48.918Z,14.46
2023-03-31T08:53:07.565Z,14.01
2023-03-31T08:57:25.965Z,13.62
2023-03-31T09:02:19.044Z,13.54
2023-03-31T09:06:34.920Z,13.71
2023-03-31T09:10:45.461Z,13.96
2023-03-31T09:14:59.176Z,14.12
2023-03-31T09:19:02.667Z,14.02
2023-03-31T09:23:34.472Z,14.30
2023-03-31T09:27:42.691Z,14.84
2023-03-31T09:31:46.844Z,15.21
2023-03-31T09:35:51.366Z,15.60
2023-03-31T09:39:54.185Z,15.70
2023-03-31T09:43:56.743Z,15.52
2023-03-31T09:48:03.035Z,15.43
2023-03-31T09:52:21.905Z,15.29
2023-03-31T09:56:42.805Z,15.51
2023-03-31T10:00:59.286Z,15.96
2023-03-31T10:05:02.531Z,16.76
2023-03-31T10:09:05.643Z,17.34
2023-03-31T10:13:10.900Z,17.40
2023-03-31T10:17:24.340Z,17.33
2023-03-31T10:21:35.362Z,17.16
2023-03-31T10:25:37.434Z,16.94
2023-03-31T10:29:39.586Z,16.79
2023-03-31T10:33:46.504Z,16.72
2023-03-31T10:37:50.756Z,16.62
2023-03-31T10:41:53.150Z,16.31
2023-03-31T10:46:02.441Z,16.19
2023-03-31T10:50:05.205Z,15.85
2023-03-31T10:54:09.190Z,15.75
2023-03-31T10:58:47.034Z,15.77
2023-03-31T11:03:36.323Z,15.81
2023-03-31T11:08:21.544Z,15.87
2023-03-31T11:12:29.657Z,15.89
2023-03-31T11:16:56.158Z,15.95
2023-03-31T11:21:20.366Z,16.00
2023-03-31T11:25:29.815Z,15.85
2023-03-31T11:29:41.199Z,15.91
2023-03-31T11:33:52.587Z,15.97
2023-03-31T11:37:54.567Z,16.04
2023-03-31T11:42:03.057Z,16.11
2023-03-31T11:46:13.997Z,16.19
2023-03-31T11:50:23.066Z,16.17
2023-03-31T11:54:57.925Z,16.18
2023-03-31T11:59:00.875Z,16.33
2023-03-31T12:03:24.144Z,16.51
2023-03-31T12:07:34.385Z,17.00
2023-03-31T12:12:04.420Z,17.37
2023-03-31T12:16:14.420Z,17.43
2023-03-31T12:20:35.283Z,17.24
2023-03-31T12:24:38.713Z,17.18
2023-03-31T12:28:43.173Z,17.06
2023-03-31T12:32:56.047Z,16.99
2023-03-31T12:37:36.962Z,17.07
2023-03-31T12:42:25.729Z,16.93
2023-03-31T12:46:48.451Z,17.03
2023-03-31T12:50:53.607Z,17.18
2023-03-31T12:55:23.987Z,17.48
2023-03-31T12:59:37.958Z,17.43
2023-03-31T13:03:46.962Z,17.46
2023-03-31T13:07:49.047Z,17.71
2023-03-31T13:11:51.198Z,17.70
2023-03-31T13:15:56.536Z,17.60
2023-03-31T13:20:32.993Z,17.61
2023-03-31T13:24:35.694Z,17.60
2023-03-31T13:28:42.565Z,17.62
2023-03-31T13:33:05.314Z,17.52
2023-03-31T13:37:21.817Z,17.61
2023-03-31T13:41:43.361Z,17.94
2023-03-31T13:45:59.191Z,18.05
2023-03-31T13:50:32.211Z,17.92
2023-03-31T13:54:52.928Z,17.58
2023-03-31T13:59:19.370Z,17.39
2023-03-31T14:03:33.728Z,17.17
2023-03-31T14:07:43.963Z,16.94
2023-03-31T14:11:46.034Z,16.95
2023-03-31T14:15:50.710Z,16.93
2023-03-31T14:20:29.903Z,16.76
2023-03-31T14:24:50.751Z,16.80
2023-03-31T14:29:37.836Z,16.76
2023-03-31T14:34:17.349Z,16.87
2023-03-31T14:38:22.601Z,17.07
2023-03-31T14:42:38.105Z,17.22
2023-03-31T14:46:40.349Z,17.26
2023-03-31T14:50:45.710Z,17.28
2023-03-31T14:54:50.261Z,17.35
2023-03-31T14:58:54.360Z,17.41
2023-03-31T15:02:58.294Z,17.46
2023-03-31T15:07:04.628Z,17.47
2023-03-31T15:11:16.004Z,17.68
2023-03-31T15:15:20.878Z,17.62
2023-03-31T15:19:25.079Z,17.88
2023-03-31T15:23:28.389Z,18.20
2023-03-31T15:27:43.319Z,18.27
2023-03-31T15:31:45.682Z,18.31
2023-03-31T15:35:48.426Z,18.44
2023-03-31T15:39:50.923Z,18.60
2023-03-31T15:44:36.756Z,18.33
2023-03-31T15:48:51.958Z,17.95
2023-03-31T15:52:57.930Z,18.02
2023-03-31T15:57:02.421Z,18.38
2023-03-31T16:01:06.436Z,18.71
2023-03-31T16:05:26.795Z,20.38
2023-03-31T16:09:40.022Z,20.95
2023-03-31T16:13:46.765Z,21.00
2023-03-31T16:18:01.826Z,21.25
2023-03-31T16:22:05.101Z,21.00
2023-03-31T16:26:08.773Z,19.75
2023-03-31T16:30:17.068Z,18.52
2023-03-31T16:34:19.259Z,17.98
2023-03-31T16:38:31.142Z,17.33
2023-03-31T16:42:33.311Z,16.91
2023-03-31T16:46:35.508Z,16.61
2023-03-31T16:50:37.611Z,16.36
2023-03-31T16:54:40.548Z,16.16
2023-03-31T16:58:43.718Z,15.96
2023-03-31T17:02:46.377Z,15.83
2023-03-31T17:06:48.545Z,15.71
2023-03-31T17:10:53.864Z,15.59
2023-03-31T17:14:56.358Z,15.50
2023-03-31T17:18:58.473Z,15.41
2023-03-31T17:23:00.726Z,15.34
2023-03-31T17:27:02.754Z,15.26
2023-03-31T17:31:16.330Z,15.19
2023-03-31T17:35:21.710Z,15.08
2023-03-31T17:39:23.941Z,14.97
2023-03-31T17:43:25.963Z,14.86
2023-03-31T17:47:28.119Z,14.79
2023-03-31T17:51:32.740Z,14.78
2023-03-31T17:55:38.443Z,14.72
2023-03-31T17:59:40.741Z,14.65
2023-03-31T18:03:45.035Z,14.58
2023-03-31T18:07:47.400Z,14.49
2023-03-31T18:11:49.630Z,14.47
2023-03-31T18:15:53.134Z,14.49
2023-03-31T18:19:56.537Z,14.47
2023-03-31T18:23:58.668Z,14.47
2023-03-31T18:28:00.972Z,14.43
2023-03-31T18:32:03.215Z,14.40
2023-03-31T18:36:07.274Z,14.36
2023-03-31T18:40:10.639Z,14.31
2023-03-31T18:44:19.117Z,14.36
2023-03-31T18:48:23.337Z,14.35
2023-03-31T18:52:25.847Z,14.36
2023-03-31T18:56:27.972Z,14.30
2023-03-31T19:00:30.186Z,14.23
2023-03-31T19:04:33.037Z,14.22
2023-03-31T19:08:35.474Z,14.18
2023-03-31T19:12:37.775Z,14.21
2023-03-31T19:16:42.560Z,14.20
2023-03-31T19:20:46.971Z,14.16
2023-03-31T19:24:49.156Z,14.17
2023-03-31T19:28:51.269Z,14.14
2023-03-31T19:32:53.876Z,14.10
2023-03-31T19:36:56.101Z,14.10
2023-03-31T19:40:58.506Z,14.06
2023-03-31T19:45:00.792Z,14.02
2023-03-31T19:49:03.435Z,13.97
2023-03-31T19:53:05.738Z,13.92
2023-03-31T19:57:09.102Z,13.91
2023-03-31T20:01:21.042Z,13.93
2023-03-31T20:05:23.274Z,13.89
2023-03-31T20:09:26.755Z,13.90
2023-03-31T20:13:29.998Z,13.87
2023-03-31T20:17:32.152Z,13.83
2023-03-31T20:21:37.676Z,13.83
2023-03-31T20:25:39.798Z,13.82
2023-03-31T20:29:41.922Z,13.86
2023-03-31T20:33:44.818Z,13.87
2023-03-31T20:37:46.954Z,13.88
2023-03-31T20:41:50.547Z,13.89
2023-03-31T20:46:04.711Z,13.89
2023-03-31T20:50:07.715Z,13.82
2023-03-31T20:54:10.117Z,13.82
2023-03-31T20:58:12.712Z,13.78
2023-03-31T21:02:15.205Z,13.76
2023-03-31T21:06:18.705Z,13.71
2023-03-31T21:10:21.128Z,13.61
2023-03-31T21:14:23.409Z,13.51
2023-03-31T21:18:26.846Z,13.47
2023-03-31T21:22:29.060Z,13.48
2023-03-31T21:26:31.261Z,13.52
2023-03-31T21:30:33.405Z,13.53
2023-03-31T21:34:36.876Z,13.54
2023-03-31T21:38:39.512Z,13.47
2023-03-31T21:42:41.700Z,13.44
2023-03-31T21:46:45.234Z,13.45
2023-03-31T21:50:47.424Z,13.46
2023-03-31T21:54:49.458Z,13.45
2023-03-31T21:58:51.916Z,13.43
2023-03-31T22:03:06.385Z,13.42
2023-03-31T22:07:16.873Z,13.41
2023-03-31T22:11:19.435Z,13.42
2023-03-31T22:15:21.885Z,13.42
2023-03-31T22:19:24.477Z,13.49
2023-03-31T22:23:27.601Z,13.53
2023-03-31T22:27:29.727Z,13.58
2023-03-31T22:31:32.093Z,13.57
2023-03-31T22:35:34.838Z,13.60
2023-03-31T22:39:37.554Z,13.63
2023-03-31T22:43:39.953Z,13.66
2023-03-31T22:47:42.781Z,13.69
2023-03-31T22:51:45.303Z,13.72
2023-03-31T22:55:54.482Z,13.77
2023-03-31T22:59:56.965Z,13.66
2023-03-31T23:04:02.726Z,13.45
2023-03-31T23:08:09.181Z,13.45
2023-03-31T23:12:11.204Z,13.48
2023-03-31T23:16:21.317Z,13.10
2023-03-31T23:20:24.631Z,11.84
2023-03-31T23:24:29.702Z,10.98
2023-03-31T23:28:34.074Z,10.69
2023-03-31T23:32:36.799Z,10.04
2023-03-31T23:36:38.986Z,9.90
2023-03-31T23:40:41.445Z,9.74
2023-03-31T23:44:44.376Z,9.88
2023-03-31T23:48:47.021Z,10.09
2023-03-31T23:52:49.444Z,10.01
2023-03-31T23:56:51.768Z,9.99
